Logo
Newest Metar:
CYQR 180100Z 20012KT 15SM FEW120 FEW280 16/M06 A2932 RMK AC1CI1 AC TR PRESFR SLP941 DENSITY ALT 3200FT

Last 10 Metars:
CYQR 180000Z 23017G25KT 12SM FEW120 FEW280 20/M06 A2936 RMK AC1CI1 AC TR BLDU SLP951 DENSITY ALT 3600FT
CYQR 172300Z 24021G31KT 12SM FEW280 23/M04 A2939 RMK CI1 CI TR BLDU SLP963 DENSITY ALT 3900FT
CYQR 172200Z 24020G28KT 15SM FEW280 25/M03 A2942 RMK CI1 CI TR VIS W 10 BLDU SLP969 DENSITY ALT 4100FT
CYQR 172100Z 24022G31KT 15SM FEW280 24/M02 A2945 RMK CI1 PRESFR SLP978 DENSITY ALT 4000FT
CYQR 172000Z 24020G26KT 15SM FEW280 23/M01 A2950 RMK CI1 SLP996 DENSITY ALT 3800FT
CYQR 171900Z 24020KT 15SM FEW280 21/M00 A2955 RMK CI1 PRESFR SLP016 DENSITY ALT 3500FT
CYQR 171800Z 23015G22KT 15SM BKN280 19/M00 A2960 RMK CI5 SLP035 DENSITY ALT 3200FT
CYQR 171700Z 24013KT 15SM BKN280 15/M00 A2964 RMK CI6 SLP051 DENSITY ALT 2700FT
CYQR 171600Z 23009KT 15SM BKN280 13/M01 A2966 RMK CI7 SLP061 DENSITY ALT 2400FT
CYQR 171500Z 22008KT 15SM SCT180 BKN280 11/M01 A2967 RMK AC4CI2 SLP063 DENSITY ALT 2200FT

Click here for Saskatoon (YXE) International Weather